createdAt,value
2017-12-08T01:37:40.757Z,69.23
2017-12-08T01:37:41.333Z,69.04
2017-12-08T01:37:41.929Z,69.13
2017-12-08T01:37:42.530Z,68.85
2017-12-08T01:37:43.130Z,69.04
2017-12-08T01:37:43.729Z,69.04
2017-12-08T01:37:44.327Z,68.66
2017-12-08T01:38:38.385Z,68.48
2017-12-08T01:38:38.982Z,68.23
2017-12-08T01:38:39.582Z,68.19
2017-12-08T01:38:40.182Z,68.57
2017-12-08T01:38:40.785Z,68.48
2017-12-08T01:38:41.382Z,68.29
2017-12-08T01:38:41.981Z,68.19
2017-12-08T01:39:36.039Z,68.85
2017-12-08T01:39:36.634Z,68.76
2017-12-08T01:39:37.235Z,68.95
2017-12-08T01:39:37.834Z,68.85
2017-12-08T01:39:38.434Z,68.89
2017-12-08T01:39:39.034Z,68.85
2017-12-08T01:39:39.635Z,68.89
2017-12-08T01:40:33.714Z,68.95
2017-12-08T01:40:34.288Z,68.89
2017-12-08T01:40:34.887Z,68.85
2017-12-08T01:40:35.486Z,68.95
2017-12-08T01:40:36.092Z,68.89
2017-12-08T01:40:36.686Z,68.98
2017-12-08T01:40:37.285Z,68.76
2017-12-08T01:41:31.344Z,69.04
2017-12-08T01:41:31.940Z,69.08
2017-12-08T01:41:32.540Z,69.08
2017-12-08T01:41:33.140Z,69.27
2017-12-08T01:41:33.741Z,69.13
2017-12-08T01:41:34.340Z,68.95
2017-12-08T01:41:34.939Z,69.27
2017-12-08T01:42:28.995Z,69.42
2017-12-08T01:42:29.591Z,69.36
2017-12-08T01:42:30.191Z,69.08
2017-12-08T01:42:30.792Z,69.08
2017-12-08T01:42:31.390Z,69.42
2017-12-08T01:42:31.992Z,69.23
2017-12-08T01:42:32.598Z,69.33
2017-12-08T01:43:26.647Z,69.33
2017-12-08T01:43:27.243Z,69.23
2017-12-08T01:43:27.845Z,69.13
2017-12-08T01:43:28.443Z,69.23
2017-12-08T01:43:29.044Z,69.33
2017-12-08T01:43:29.644Z,69.23
2017-12-08T01:43:30.243Z,69.36
2017-12-08T01:44:24.300Z,69.04
2017-12-08T01:44:24.897Z,69.33
2017-12-08T01:44:25.496Z,69.23
2017-12-08T01:44:26.097Z,69.33
2017-12-08T01:44:26.706Z,69.52
2017-12-08T01:44:27.321Z,69.23
2017-12-08T01:44:27.900Z,69.42
2017-12-08T01:45:21.951Z,69.23
2017-12-08T01:45:22.548Z,69.23
2017-12-08T01:45:23.149Z,69.23
2017-12-08T01:45:23.748Z,69.13
2017-12-08T01:45:24.347Z,69.04
2017-12-08T01:45:24.946Z,69.04
2017-12-08T01:45:25.547Z,69.33
2017-12-08T01:46:19.626Z,69.61
2017-12-08T01:46:20.199Z,69.08
2017-12-08T01:46:20.800Z,69.46
2017-12-08T01:46:21.400Z,69.46
2017-12-08T01:46:21.999Z,69.46
2017-12-08T01:46:22.598Z,69.46
2017-12-08T01:46:23.199Z,69.65
2017-12-08T01:47:17.255Z,69.55
2017-12-08T01:47:17.852Z,69.65
2017-12-08T01:47:18.456Z,69.93
2017-12-08T01:47:19.050Z,69.46
2017-12-08T01:47:19.651Z,69.42
2017-12-08T01:47:20.251Z,69.65
2017-12-08T01:47:20.850Z,69.74
2017-12-08T01:48:14.908Z,70.31
2017-12-08T01:48:15.502Z,70.31
2017-12-08T01:48:16.102Z,70.31
2017-12-08T01:48:16.702Z,70.03
2017-12-08T01:48:17.302Z,70.12
2017-12-08T01:48:17.902Z,69.99
2017-12-08T01:48:18.502Z,70.21
2017-12-08T01:49:12.560Z,70.28
2017-12-08T01:49:13.155Z,70.03
2017-12-08T01:49:13.755Z,70.31
2017-12-08T01:49:14.355Z,70.31
2017-12-08T01:49:14.955Z,70.31
2017-12-08T01:49:15.554Z,70.31
2017-12-08T01:49:16.154Z,70.12
2017-12-08T01:50:10.209Z,70.88
2017-12-08T01:50:10.807Z,70.88
2017-12-08T01:50:11.407Z,70.88
2017-12-08T01:50:12.006Z,70.88
2017-12-08T01:50:12.606Z,70.88
2017-12-08T01:50:13.206Z,70.69
2017-12-08T01:50:13.809Z,70.88
2017-12-08T01:51:07.862Z,70.98
2017-12-08T01:51:08.459Z,70.88
2017-12-08T01:51:09.057Z,71.07
2017-12-08T01:51:09.658Z,70.78
2017-12-08T01:51:10.257Z,70.88
2017-12-08T01:51:10.858Z,70.88
2017-12-08T01:51:11.456Z,70.98
2017-12-08T01:52:05.535Z,71.64
2017-12-08T01:52:06.110Z,71.64
2017-12-08T01:52:06.710Z,71.64
2017-12-08T01:52:07.310Z,71.83
2017-12-08T01:52:07.910Z,71.64
2017-12-08T01:52:08.509Z,71.55
2017-12-08T01:52:09.109Z,71.83
2017-12-08T01:53:03.164Z,72.11
2017-12-08T01:53:03.762Z,72.68
2017-12-08T01:53:04.362Z,72.49
2017-12-08T01:53:04.963Z,72.21
2017-12-08T01:53:05.562Z,72.88
2017-12-08T01:53:06.161Z,72.40
2017-12-08T01:53:06.761Z,72.40
2017-12-08T01:54:00.817Z,72.78
2017-12-08T01:54:01.414Z,72.68
2017-12-08T01:54:02.014Z,72.78
2017-12-08T01:54:02.613Z,72.88
2017-12-08T01:54:03.215Z,72.88
2017-12-08T01:54:03.813Z,72.88
2017-12-08T01:54:04.423Z,72.78
2017-12-08T01:54:58.468Z,73.25
2017-12-08T01:54:59.066Z,73.07
2017-12-08T01:54:59.667Z,73.16
2017-12-08T01:55:00.265Z,72.97
2017-12-08T01:55:00.864Z,73.16
2017-12-08T01:55:01.465Z,73.07
2017-12-08T01:55:02.064Z,72.97
2017-12-08T01:55:55.608Z,73.25
2017-12-08T01:55:56.209Z,73.35
2017-12-08T01:55:56.806Z,73.35
2017-12-08T01:55:57.406Z,73.25
2017-12-08T01:55:58.006Z,73.25
2017-12-08T01:55:58.605Z,73.07
2017-12-08T01:55:59.206Z,73.25
2017-12-08T01:55:59.805Z,73.16
2017-12-08T01:56:53.803Z,73.92
2017-12-08T01:56:54.373Z,73.54
2017-12-08T01:56:54.968Z,73.72
2017-12-08T01:56:55.568Z,73.72
2017-12-08T01:56:56.169Z,73.82
2017-12-08T01:56:56.767Z,73.63
2017-12-08T01:56:57.369Z,73.54
2017-12-08T01:58:11.391Z,74.20
2017-12-08T01:58:11.989Z,74.39
2017-12-08T01:58:12.588Z,74.11
2017-12-08T01:58:13.189Z,74.11
2017-12-08T01:58:13.788Z,74.39
2017-12-08T01:58:14.388Z,74.39
2017-12-08T01:58:14.991Z,74.30
2017-12-08T01:59:09.042Z,75.15
2017-12-08T01:59:09.639Z,75.34
2017-12-08T01:59:10.240Z,75.43
2017-12-08T01:59:10.840Z,75.43
2017-12-08T01:59:11.440Z,75.34
2017-12-08T01:59:12.042Z,75.43
2017-12-08T01:59:12.640Z,75.43
2017-12-08T02:00:06.184Z,75.43
2017-12-08T02:00:06.780Z,75.53
2017-12-08T02:00:07.382Z,75.62
2017-12-08T02:00:07.982Z,75.62
2017-12-08T02:00:08.580Z,75.62
2017-12-08T02:00:09.181Z,75.81
2017-12-08T02:00:09.783Z,75.81
2017-12-08T02:00:10.380Z,76.10
2017-12-08T02:01:04.350Z,76.48
2017-12-08T02:01:04.949Z,76.10
2017-12-08T02:01:05.543Z,76.48
2017-12-08T02:01:06.145Z,76.29
2017-12-08T02:01:06.744Z,76.48
2017-12-08T02:01:07.342Z,76.39
2017-12-08T02:01:07.944Z,76.48
2017-12-08T02:02:22.005Z,77.05
2017-12-08T02:02:22.564Z,77.24
2017-12-08T02:02:23.164Z,77.43
2017-12-08T02:02:23.763Z,77.05
2017-12-08T02:02:24.363Z,77.33
2017-12-08T02:02:24.963Z,76.86
2017-12-08T02:02:25.565Z,77.43
2017-12-08T02:03:19.618Z,77.24
2017-12-08T02:03:20.216Z,77.33
2017-12-08T02:03:20.824Z,77.33
2017-12-08T02:03:21.415Z,77.52
2017-12-08T02:03:22.016Z,77.33
2017-12-08T02:03:23.592Z,77.71
2017-12-08T02:04:18.092Z,78.09
2017-12-08T02:04:18.685Z,78.19
2017-12-08T02:04:19.285Z,78.09
2017-12-08T02:04:19.884Z,78.28
2017-12-08T02:04:20.484Z,78.09
2017-12-08T02:04:21.084Z,78.19
2017-12-08T02:04:21.686Z,78.19
2017-12-08T02:05:15.741Z,78.56
2017-12-08T02:05:16.338Z,78.95
2017-12-08T02:05:16.938Z,78.75
2017-12-08T02:05:17.537Z,78.75
2017-12-08T02:05:18.144Z,78.75
2017-12-08T02:05:18.738Z,78.75
2017-12-08T02:05:19.337Z,78.75
2017-12-08T02:06:13.393Z,78.95
2017-12-08T02:06:13.989Z,79.14
2017-12-08T02:06:14.588Z,79.04
2017-12-08T02:06:15.189Z,79.14
2017-12-08T02:06:15.789Z,79.14
2017-12-08T02:06:16.388Z,79.14
2017-12-08T02:06:16.988Z,79.14
2017-12-08T02:07:11.044Z,79.61
2017-12-08T02:07:11.640Z,79.80
2017-12-08T02:07:12.241Z,79.61
2017-12-08T02:07:12.841Z,79.80
2017-12-08T02:07:13.440Z,79.61
2017-12-08T02:07:14.040Z,79.71
2017-12-08T02:07:14.639Z,79.52
2017-12-08T02:08:08.717Z,79.52
2017-12-08T02:08:09.295Z,79.71
2017-12-08T02:08:09.893Z,79.52
2017-12-08T02:08:10.499Z,79.71
2017-12-08T02:08:11.092Z,79.71
2017-12-08T02:08:11.691Z,79.80
2017-12-08T02:08:12.292Z,79.23
2017-12-08T02:09:06.349Z,80.27
2017-12-08T02:09:06.945Z,79.99
2017-12-08T02:09:07.544Z,80.08
2017-12-08T02:09:08.144Z,80.08
2017-12-08T02:09:08.743Z,79.80
2017-12-08T02:09:09.344Z,80.08
2017-12-08T02:09:09.945Z,80.08
2017-12-08T02:10:04.000Z,80.27
2017-12-08T02:10:04.601Z,80.08
2017-12-08T02:10:05.196Z,80.08
2017-12-08T02:10:05.798Z,80.37
2017-12-08T02:10:06.396Z,80.27
2017-12-08T02:10:06.995Z,80.18
2017-12-08T02:10:07.595Z,80.18
2017-12-08T02:11:01.659Z,80.37
2017-12-08T02:11:02.247Z,80.18
2017-12-08T02:11:02.847Z,79.90
2017-12-08T02:11:03.448Z,79.99
2017-12-08T02:11:04.048Z,80.18
2017-12-08T02:11:04.646Z,79.99
2017-12-08T02:11:05.246Z,79.99
2017-12-08T02:11:59.303Z,80.46
2017-12-08T02:11:59.899Z,80.46
2017-12-08T02:12:00.507Z,80.46
2017-12-08T02:12:01.100Z,80.37
2017-12-08T02:12:01.698Z,80.37
2017-12-08T02:12:02.305Z,80.37
2017-12-08T02:12:02.898Z,80.37
2017-12-08T02:12:56.984Z,80.94
2017-12-08T02:12:57.551Z,80.94
2017-12-08T02:12:58.151Z,80.94
2017-12-08T02:12:58.751Z,80.94
2017-12-08T02:12:59.352Z,80.94
2017-12-08T02:12:59.950Z,80.94
2017-12-08T02:13:00.550Z,80.94
2017-12-08T02:13:54.605Z,80.46
2017-12-08T02:13:55.202Z,80.56
2017-12-08T02:13:55.801Z,80.65
2017-12-08T02:13:56.402Z,80.65
2017-12-08T02:13:57.002Z,80.65
2017-12-08T02:13:57.601Z,80.37
2017-12-08T02:13:58.201Z,80.56
2017-12-08T02:14:52.257Z,81.32
2017-12-08T02:14:52.855Z,81.23
2017-12-08T02:14:53.454Z,81.13
2017-12-08T02:14:54.054Z,81.32
2017-12-08T02:14:54.653Z,81.32
2017-12-08T02:14:55.252Z,81.41
2017-12-08T02:14:55.854Z,81.32
2017-12-08T02:15:49.907Z,81.13
2017-12-08T02:15:50.507Z,81.13
2017-12-08T02:15:51.116Z,81.23
2017-12-08T02:15:51.706Z,81.13
2017-12-08T02:15:52.305Z,81.13
2017-12-08T02:15:52.906Z,81.13
2017-12-08T02:15:53.506Z,81.51
2017-12-08T02:16:47.560Z,81.04
2017-12-08T02:16:48.158Z,81.41
2017-12-08T02:16:48.757Z,81.41
2017-12-08T02:16:49.357Z,81.41
2017-12-08T02:16:49.959Z,81.47
2017-12-08T02:16:50.557Z,81.51
2017-12-08T02:16:51.156Z,81.51
2017-12-08T02:17:45.216Z,81.23
2017-12-08T02:17:45.809Z,81.23
2017-12-08T02:17:46.408Z,81.41
2017-12-08T02:17:47.010Z,81.51
2017-12-08T02:17:47.619Z,81.23
2017-12-08T02:17:48.209Z,81.51
2017-12-08T02:17:48.808Z,81.51
2017-12-08T02:18:42.886Z,81.60
2017-12-08T02:18:43.461Z,81.32
2017-12-08T02:18:44.061Z,81.13
2017-12-08T02:18:44.661Z,81.32
2017-12-08T02:18:45.261Z,81.23
2017-12-08T02:18:45.859Z,81.37
2017-12-08T02:18:46.484Z,81.23
2017-12-08T02:19:40.514Z,81.51
2017-12-08T02:19:41.113Z,81.37
2017-12-08T02:19:41.713Z,81.32
2017-12-08T02:19:42.312Z,81.41
2017-12-08T02:19:42.911Z,81.41
2017-12-08T02:19:43.511Z,81.18
2017-12-08T02:19:44.112Z,81.18
2017-12-08T02:20:38.167Z,81.13
2017-12-08T02:20:38.764Z,81.04
2017-12-08T02:20:39.364Z,81.51
2017-12-08T02:20:39.965Z,81.04
2017-12-08T02:20:40.563Z,81.18
2017-12-08T02:20:41.163Z,80.99
2017-12-08T02:20:41.762Z,81.04
2017-12-08T02:21:35.820Z,81.75
2017-12-08T02:21:36.416Z,81.79
2017-12-08T02:21:37.016Z,81.51
2017-12-08T02:21:37.615Z,81.70
2017-12-08T02:21:38.216Z,81.79
2017-12-08T02:21:38.815Z,81.51
2017-12-08T02:21:39.426Z,81.79
2017-12-08T02:22:33.470Z,81.98
2017-12-08T02:22:34.067Z,81.70
2017-12-08T02:22:34.667Z,81.37
2017-12-08T02:22:35.267Z,81.70
2017-12-08T02:22:35.868Z,81.60
2017-12-08T02:22:36.466Z,81.60
2017-12-08T02:22:37.068Z,81.41
2017-12-08T02:23:31.151Z,81.88
2017-12-08T02:23:31.719Z,81.98
2017-12-08T02:23:32.319Z,82.08
2017-12-08T02:23:32.922Z,82.08
2017-12-08T02:23:33.518Z,81.98
2017-12-08T02:23:34.118Z,82.08
2017-12-08T02:23:34.718Z,81.88
2017-12-08T02:24:28.774Z,82.27
2017-12-08T02:24:29.370Z,82.17
2017-12-08T02:24:29.969Z,82.27
2017-12-08T02:24:30.570Z,82.27
2017-12-08T02:24:31.170Z,82.17
2017-12-08T02:24:31.780Z,82.27
2017-12-08T02:24:32.369Z,82.17
2017-12-08T02:25:26.425Z,83.69
2017-12-08T02:25:27.034Z,83.69
2017-12-08T02:25:27.620Z,83.59
2017-12-08T02:25:28.222Z,83.40
2017-12-08T02:25:28.820Z,83.31
2017-12-08T02:25:29.433Z,83.69
2017-12-08T02:25:30.019Z,83.69
2017-12-08T02:26:24.076Z,83.40
2017-12-08T02:26:24.678Z,83.22
2017-12-08T02:26:25.275Z,83.40
2017-12-08T02:26:25.876Z,83.69
2017-12-08T02:26:26.473Z,83.31
2017-12-08T02:26:27.074Z,83.59
2017-12-08T02:26:27.674Z,83.59
2017-12-08T02:27:26.236Z,83.40
2017-12-08T02:27:26.832Z,83.40
2017-12-08T02:27:27.452Z,83.40
2017-12-08T02:27:28.031Z,83.40
2017-12-08T02:27:28.631Z,83.78
2017-12-08T02:27:29.230Z,83.88
2017-12-08T02:27:29.830Z,83.69
2017-12-08T02:27:30.430Z,83.40
2017-12-08T02:27:31.030Z,83.88
2017-12-08T02:27:31.631Z,83.88
2017-12-08T02:27:32.230Z,83.40
2017-12-08T02:27:32.830Z,83.88
2017-12-08T02:27:33.429Z,83.88
2017-12-08T02:27:34.030Z,83.78
2017-12-08T02:27:34.629Z,83.59
2017-12-08T02:27:35.229Z,83.97
2017-12-08T02:28:49.303Z,84.17
2017-12-08T02:28:49.878Z,84.45
2017-12-08T02:28:50.478Z,84.31
2017-12-08T02:28:51.079Z,84.36
2017-12-08T02:28:51.677Z,84.36
2017-12-08T02:28:52.277Z,84.26
2017-12-08T02:28:52.878Z,84.26
2017-12-08T02:29:46.934Z,84.41
2017-12-08T02:29:47.530Z,84.59
2017-12-08T02:29:48.130Z,84.36
2017-12-08T02:29:48.730Z,84.17
2017-12-08T02:29:49.330Z,84.17
2017-12-08T02:29:49.930Z,84.26
2017-12-08T02:29:50.529Z,84.45
2017-12-08T02:30:44.585Z,84.07
2017-12-08T02:30:45.180Z,84.17
2017-12-08T02:30:45.781Z,84.17
2017-12-08T02:30:46.381Z,84.22
2017-12-08T02:30:46.981Z,84.26
2017-12-08T02:30:47.580Z,84.36
2017-12-08T02:30:48.181Z,84.12
2017-12-08T02:31:42.236Z,84.17
2017-12-08T02:31:42.834Z,84.12
2017-12-08T02:31:43.434Z,84.12
2017-12-08T02:31:44.033Z,84.17
2017-12-08T02:31:44.633Z,84.26
2017-12-08T02:31:45.233Z,84.26
2017-12-08T02:31:45.833Z,84.07
2017-12-08T02:32:39.889Z,84.64
2017-12-08T02:32:40.485Z,84.50
2017-12-08T02:32:41.085Z,84.64
2017-12-08T02:32:41.684Z,84.26
2017-12-08T02:32:42.285Z,84.64
2017-12-08T02:32:42.885Z,84.36
2017-12-08T02:32:43.485Z,84.26
2017-12-08T02:33:37.567Z,84.78
2017-12-08T02:33:38.139Z,84.74
2017-12-08T02:33:38.736Z,84.83
2017-12-08T02:33:39.336Z,84.45
2017-12-08T02:33:39.936Z,84.74
2017-12-08T02:33:40.535Z,84.69
2017-12-08T02:33:41.135Z,84.74
2017-12-08T02:52:34.820Z,84.59
2017-12-08T02:52:35.396Z,84.41
2017-12-08T02:52:35.993Z,84.69
2017-12-08T02:52:36.593Z,84.78
2017-12-08T02:52:37.193Z,84.69
2017-12-08T02:52:37.794Z,84.50
2017-12-08T02:52:38.392Z,84.50
2017-12-08T02:53:32.450Z,84.69
2017-12-08T02:53:33.047Z,84.78
2017-12-08T02:53:33.646Z,84.88
2017-12-08T02:53:34.247Z,84.69
2017-12-08T02:53:34.846Z,84.78
2017-12-08T02:53:35.446Z,84.69
2017-12-08T02:53:36.046Z,84.69
2017-12-08T02:54:30.102Z,84.31
2017-12-08T02:54:30.699Z,84.31
2017-12-08T02:54:31.299Z,84.31
2017-12-08T02:54:31.905Z,84.22
2017-12-08T02:54:32.499Z,84.31
2017-12-08T02:54:33.098Z,84.31
2017-12-08T02:54:33.699Z,84.31
2017-12-08T02:55:27.760Z,84.50
2017-12-08T02:55:28.352Z,84.31
2017-12-08T02:55:28.950Z,84.50
2017-12-08T02:55:29.550Z,84.31
2017-12-08T02:55:30.153Z,84.50
2017-12-08T02:55:30.751Z,84.50
2017-12-08T02:55:31.355Z,84.50
2017-12-08T02:56:25.440Z,84.50
2017-12-08T02:56:26.004Z,84.50
2017-12-08T02:56:26.603Z,84.12
2017-12-08T02:56:27.202Z,84.03
2017-12-08T02:56:27.825Z,84.41
2017-12-08T02:56:28.403Z,84.59
2017-12-08T02:56:29.003Z,84.50
2017-12-08T02:57:23.059Z,84.03
2017-12-08T02:57:23.656Z,84.12
2017-12-08T02:57:24.260Z,84.31
2017-12-08T02:57:24.856Z,83.94
2017-12-08T02:57:25.456Z,83.84
2017-12-08T02:57:26.055Z,83.94
2017-12-08T02:57:26.656Z,83.94
2017-12-08T02:58:20.710Z,84.59
2017-12-08T02:58:21.308Z,84.69
2017-12-08T02:58:21.907Z,84.50
2017-12-08T02:58:22.507Z,84.41
2017-12-08T02:58:23.107Z,84.31
2017-12-08T02:58:23.708Z,84.50
2017-12-08T02:58:24.307Z,84.59
2017-12-08T02:59:18.362Z,84.69
2017-12-08T02:59:18.960Z,84.69
2017-12-08T02:59:19.559Z,84.78
2017-12-08T02:59:20.160Z,84.69
2017-12-08T02:59:20.759Z,84.69
2017-12-08T02:59:21.359Z,84.69
2017-12-08T02:59:21.959Z,84.88
2017-12-08T03:00:15.504Z,85.07
2017-12-08T03:00:16.099Z,85.17
2017-12-08T03:00:16.699Z,85.26
2017-12-08T03:00:17.300Z,84.88
2017-12-08T03:00:17.900Z,85.45
2017-12-08T03:00:18.499Z,85.26
2017-12-08T03:00:19.099Z,85.17
2017-12-08T03:00:19.700Z,85.36
2017-12-08T03:01:13.666Z,85.26
2017-12-08T03:01:14.267Z,85.26
2017-12-08T03:01:14.863Z,85.26
2017-12-08T03:01:15.463Z,85.26
2017-12-08T03:01:16.062Z,85.45
2017-12-08T03:01:16.663Z,85.36
2017-12-08T03:01:17.264Z,85.26
2017-12-08T03:02:31.307Z,85.74
2017-12-08T03:02:31.883Z,85.74
2017-12-08T03:02:32.481Z,85.83
2017-12-08T03:02:33.083Z,85.55
2017-12-08T03:02:33.683Z,85.74
2017-12-08T03:02:34.281Z,85.74
2017-12-08T03:02:34.882Z,85.74
2017-12-08T03:03:28.939Z,85.64
2017-12-08T03:03:29.535Z,85.55
2017-12-08T03:03:30.135Z,85.55
2017-12-08T03:03:30.735Z,85.55
2017-12-08T03:03:31.335Z,85.55
2017-12-08T03:03:31.934Z,85.45
2017-12-08T03:03:32.535Z,85.55
2017-12-08T03:04:26.590Z,85.36
2017-12-08T03:04:27.187Z,85.45
2017-12-08T03:04:27.787Z,85.45
2017-12-08T03:04:28.386Z,85.64
2017-12-08T03:04:28.986Z,85.64
2017-12-08T03:04:29.586Z,85.64
2017-12-08T03:04:30.185Z,85.74
2017-12-08T03:05:24.241Z,85.45
2017-12-08T03:05:24.839Z,85.55
2017-12-08T03:05:25.438Z,85.45
2017-12-08T03:05:26.038Z,85.55
2017-12-08T03:05:26.642Z,85.55
2017-12-08T03:05:27.236Z,85.74
2017-12-08T03:05:27.837Z,85.64
2017-12-08T03:06:21.893Z,86.02
2017-12-08T03:06:22.491Z,86.21
2017-12-08T03:06:23.090Z,85.93
2017-12-08T03:06:23.691Z,86.02
2017-12-08T03:06:24.292Z,86.11
2017-12-08T03:06:24.889Z,85.93
2017-12-08T03:06:25.492Z,85.93
2017-12-08T03:07:19.585Z,86.35
2017-12-08T03:07:20.147Z,86.40
2017-12-08T03:07:20.742Z,86.40
2017-12-08T03:07:21.342Z,86.40
2017-12-08T03:07:21.942Z,86.40
2017-12-08T03:07:22.541Z,86.40
2017-12-08T03:07:23.142Z,86.21
2017-12-08T03:08:17.196Z,86.11
2017-12-08T03:08:17.795Z,85.83
2017-12-08T03:08:18.394Z,86.40
2017-12-08T03:08:18.994Z,86.40
2017-12-08T03:08:19.594Z,86.40
2017-12-08T03:08:20.193Z,86.59
2017-12-08T03:08:20.793Z,86.49
2017-12-08T03:09:14.849Z,86.40
2017-12-08T03:09:15.449Z,86.44
2017-12-08T03:09:16.045Z,86.30
2017-12-08T03:09:16.644Z,86.40
2017-12-08T03:09:17.245Z,86.40
2017-12-08T03:09:17.844Z,86.44
2017-12-08T03:09:18.444Z,86.40
2017-12-08T03:10:12.500Z,87.30
2017-12-08T03:10:13.098Z,87.45
2017-12-08T03:10:13.697Z,87.49
2017-12-08T03:10:14.299Z,87.49
2017-12-08T03:10:14.897Z,87.45
2017-12-08T03:10:15.497Z,87.11
2017-12-08T03:10:16.097Z,87.30
2017-12-08T03:11:10.152Z,87.58
2017-12-08T03:11:10.749Z,87.92
2017-12-08T03:11:11.348Z,87.54
2017-12-08T03:11:11.954Z,88.01
2017-12-08T03:11:12.548Z,87.54
2017-12-08T03:11:13.148Z,87.87
2017-12-08T03:11:13.748Z,87.54
2017-12-08T03:12:07.803Z,89.00
2017-12-08T03:12:08.401Z,88.48
2017-12-08T03:12:09.003Z,88.91
2017-12-08T03:12:09.599Z,88.91
2017-12-08T03:12:10.199Z,88.53
2017-12-08T03:12:10.800Z,88.29
2017-12-08T03:12:11.400Z,88.39
2017-12-08T03:13:05.481Z,88.96
2017-12-08T03:13:06.053Z,88.87
2017-12-08T03:13:06.652Z,88.96
2017-12-08T03:13:07.252Z,89.06
2017-12-08T03:13:07.855Z,88.96
2017-12-08T03:13:08.451Z,88.91
2017-12-08T03:13:09.052Z,88.87
2017-12-08T03:14:03.107Z,88.96
2017-12-08T03:14:03.703Z,89.39
2017-12-08T03:14:04.303Z,89.25
2017-12-08T03:14:04.904Z,89.25
2017-12-08T03:14:05.504Z,89.25
2017-12-08T03:14:06.102Z,89.20
2017-12-08T03:14:06.704Z,89.15
2017-12-08T03:15:00.758Z,89.53
2017-12-08T03:15:01.355Z,89.43
2017-12-08T03:15:01.956Z,89.43
2017-12-08T03:15:02.555Z,89.53
2017-12-08T03:15:03.155Z,89.53
2017-12-08T03:15:03.755Z,89.43
2017-12-08T03:15:04.354Z,89.34
2017-12-08T03:15:58.409Z,89.25
2017-12-08T03:15:59.008Z,89.34
2017-12-08T03:15:59.606Z,89.34
2017-12-08T03:16:00.206Z,89.25
2017-12-08T03:16:00.806Z,89.25
2017-12-08T03:16:01.409Z,89.34
2017-12-08T03:16:02.006Z,89.25
2017-12-08T03:16:56.062Z,89.62
2017-12-08T03:16:56.659Z,89.53
2017-12-08T03:16:57.257Z,89.43
2017-12-08T03:16:57.858Z,89.43
2017-12-08T03:16:58.460Z,89.53
2017-12-08T03:16:59.058Z,89.15
2017-12-08T03:16:59.658Z,89.53
2017-12-08T03:17:53.737Z,89.34
2017-12-08T03:17:54.311Z,89.06
2017-12-08T03:17:54.913Z,89.06
2017-12-08T03:17:55.510Z,89.06
2017-12-08T03:17:56.110Z,89.06
2017-12-08T03:17:56.708Z,89.53
2017-12-08T03:17:57.309Z,89.53
2017-12-08T03:18:51.363Z,89.53
2017-12-08T03:18:51.961Z,89.53
2017-12-08T03:18:52.562Z,89.06
2017-12-08T03:18:53.161Z,89.72
2017-12-08T03:18:53.761Z,89.62
2017-12-08T03:18:54.361Z,89.43
2017-12-08T03:18:54.961Z,89.43
2017-12-08T03:19:49.016Z,89.43
2017-12-08T03:19:49.614Z,89.43
2017-12-08T03:19:50.213Z,89.43
2017-12-08T03:19:50.813Z,89.43
2017-12-08T03:19:51.413Z,89.43
2017-12-08T03:19:52.015Z,89.53
2017-12-08T03:19:52.610Z,89.53
2017-12-08T03:20:46.672Z,90.00
2017-12-08T03:20:47.268Z,89.72
2017-12-08T03:20:47.868Z,89.81
2017-12-08T03:20:48.468Z,90.00
2017-12-08T03:20:49.068Z,90.10
2017-12-08T03:20:49.667Z,89.25
2017-12-08T03:20:50.267Z,90.00
2017-12-08T03:21:43.810Z,89.81
2017-12-08T03:21:44.405Z,89.72
2017-12-08T03:21:45.006Z,89.81
2017-12-08T03:21:45.605Z,89.81
2017-12-08T03:21:46.205Z,89.81
2017-12-08T03:21:46.806Z,90.10
2017-12-08T03:21:47.405Z,89.91
2017-12-08T03:21:48.007Z,89.81
2017-12-08T03:22:41.972Z,89.43
2017-12-08T03:22:42.574Z,89.15
2017-12-08T03:22:43.168Z,89.43
2017-12-08T03:22:43.768Z,89.25
2017-12-08T03:22:44.367Z,89.25
2017-12-08T03:22:44.967Z,89.25
2017-12-08T03:22:45.568Z,89.25
2017-12-08T03:23:59.623Z,89.25
2017-12-08T03:24:00.187Z,89.15
2017-12-08T03:24:00.788Z,88.96
2017-12-08T03:24:01.388Z,88.87
2017-12-08T03:24:01.987Z,88.87
2017-12-08T03:24:02.587Z,89.25
2017-12-08T03:24:03.188Z,89.06
2017-12-08T03:24:57.243Z,89.91
2017-12-08T03:24:57.839Z,89.15
2017-12-08T03:24:58.438Z,89.15
2017-12-08T03:24:59.040Z,89.43
2017-12-08T03:24:59.639Z,89.43
2017-12-08T03:25:00.240Z,89.43
2017-12-08T03:25:00.839Z,89.15
2017-12-08T03:25:54.895Z,90.10
2017-12-08T03:25:55.491Z,89.81
2017-12-08T03:25:56.091Z,90.19
2017-12-08T03:25:56.691Z,90.29
2017-12-08T03:25:57.295Z,90.19
2017-12-08T03:25:57.892Z,90.29
2017-12-08T03:25:58.490Z,90.00
2017-12-08T03:26:52.546Z,90.19
2017-12-08T03:26:53.144Z,90.10
2017-12-08T03:26:53.743Z,90.10
2017-12-08T03:26:54.343Z,90.19
2017-12-08T03:26:54.943Z,90.10
2017-12-08T03:26:55.542Z,90.19
2017-12-08T03:26:56.142Z,90.19
2017-12-08T03:27:50.197Z,90.10
2017-12-08T03:27:50.794Z,90.19
2017-12-08T03:27:51.395Z,90.19
2017-12-08T03:27:51.994Z,90.10
2017-12-08T03:27:52.595Z,90.10
2017-12-08T03:27:53.194Z,90.29
2017-12-08T03:27:53.795Z,90.29
2017-12-08T03:28:47.849Z,90.48
2017-12-08T03:28:48.448Z,90.29
2017-12-08T03:28:49.046Z,90.38
2017-12-08T03:28:49.647Z,90.38
2017-12-08T03:28:50.246Z,89.91
2017-12-08T03:28:50.846Z,90.29
2017-12-08T03:28:51.446Z,89.91
2017-12-08T03:29:45.523Z,90.29
2017-12-08T03:29:46.099Z,90.19
2017-12-08T03:29:46.697Z,90.48
2017-12-08T03:29:47.298Z,90.48
2017-12-08T03:29:47.899Z,90.48
2017-12-08T03:29:48.498Z,90.19
2017-12-08T03:29:49.099Z,90.19
2017-12-08T03:30:43.153Z,90.19
2017-12-08T03:30:43.750Z,90.48
2017-12-08T03:30:44.351Z,90.19
2017-12-08T03:30:44.950Z,90.48
2017-12-08T03:30:45.551Z,90.10
2017-12-08T03:30:46.156Z,90.00
2017-12-08T03:30:46.750Z,89.91
2017-12-08T03:31:40.803Z,90.57
2017-12-08T03:31:41.401Z,90.57
2017-12-08T03:31:42.001Z,90.57
2017-12-08T03:31:42.601Z,90.19
2017-12-08T03:31:43.205Z,90.19
2017-12-08T03:31:43.800Z,90.57
2017-12-08T03:31:44.400Z,90.19
2017-12-08T03:32:37.944Z,90.38
2017-12-08T03:32:38.542Z,90.57
2017-12-08T03:32:39.144Z,90.38
2017-12-08T03:32:39.742Z,90.48
2017-12-08T03:32:40.341Z,90.38
2017-12-08T03:32:40.941Z,90.29
2017-12-08T03:32:41.541Z,90.48
2017-12-08T03:32:42.141Z,90.57
2017-12-08T03:33:36.109Z,91.52
2017-12-08T03:33:36.711Z,91.61
2017-12-08T03:33:37.304Z,91.61
2017-12-08T03:33:37.904Z,91.71
2017-12-08T03:33:38.509Z,91.52
2017-12-08T03:33:39.104Z,91.33
2017-12-08T03:33:39.704Z,91.33
2017-12-08T03:34:53.238Z,91.61
2017-12-08T03:34:53.815Z,91.52
2017-12-08T03:34:54.414Z,91.42
2017-12-08T03:34:55.013Z,91.33
2017-12-08T03:34:55.614Z,91.42
2017-12-08T03:34:56.213Z,91.33
2017-12-08T03:34:56.813Z,91.33
2017-12-08T03:34:57.413Z,91.33
2017-12-08T03:35:51.379Z,91.80
2017-12-08T03:35:51.977Z,91.71
2017-12-08T03:35:52.578Z,91.80
2017-12-08T03:35:53.175Z,91.90
2017-12-08T03:35:53.777Z,91.80
2017-12-08T03:35:54.375Z,91.71
2017-12-08T03:35:54.974Z,91.90
2017-12-08T03:37:08.999Z,91.90
2017-12-08T03:37:09.597Z,92.18
2017-12-08T03:37:10.197Z,92.09
2017-12-08T03:37:10.796Z,92.09
2017-12-08T03:37:11.402Z,92.09
2017-12-08T03:37:11.996Z,92.09
2017-12-08T03:37:12.595Z,91.99
2017-12-08T03:38:06.140Z,91.90
2017-12-08T03:38:06.737Z,91.71
2017-12-08T03:38:07.338Z,91.80
2017-12-08T03:38:07.937Z,91.80
2017-12-08T03:38:08.544Z,92.09
2017-12-08T03:38:09.136Z,92.09
2017-12-08T03:38:09.736Z,92.18
2017-12-08T03:38:10.339Z,91.99
2017-12-08T03:39:04.302Z,91.52
2017-12-08T03:39:04.899Z,91.52
2017-12-08T03:39:05.501Z,91.33
2017-12-08T03:39:06.100Z,91.61
2017-12-08T03:39:06.699Z,91.14
2017-12-08T03:39:07.296Z,91.14
2017-12-08T03:39:07.899Z,91.05
2017-12-08T03:40:21.945Z,90.95
2017-12-08T03:40:22.526Z,91.05
2017-12-08T03:40:23.118Z,91.14
2017-12-08T03:40:23.720Z,91.42
2017-12-08T03:40:24.319Z,90.67
2017-12-08T03:40:24.919Z,91.14
2017-12-08T03:40:25.518Z,91.14
2017-12-08T03:41:19.581Z,91.42
2017-12-08T03:41:20.171Z,91.42
2017-12-08T03:41:20.771Z,91.42
2017-12-08T03:41:21.371Z,91.42
2017-12-08T03:41:21.972Z,91.33
2017-12-08T03:41:22.570Z,91.42
2017-12-08T03:41:23.171Z,91.42
2017-12-08T03:42:17.224Z,91.42
2017-12-08T03:42:17.838Z,91.61